sensor_id;sensor_type;location;lat;lon;timestamp;P1;durP1;ratioP1;P2;durP2;ratioP2
30681;SDS011;17439;48.092;11.842;2023-06-19T00:00:37;8.35;;;4.90;;
30681;SDS011;17439;48.092;11.842;2023-06-19T00:03:03;6.78;;;4.63;;
30681;SDS011;17439;48.092;11.842;2023-06-19T00:05:30;9.00;;;5.60;;
30681;SDS011;17439;48.092;11.842;2023-06-19T00:07:57;10.90;;;4.68;;
30681;SDS011;17439;48.092;11.842;2023-06-19T00:10:24;6.60;;;4.70;;
30681;SDS011;17439;48.092;11.842;2023-06-19T00:12:51;10.30;;;5.63;;
30681;SDS011;17439;48.092;11.842;2023-06-19T00:15:18;7.47;;;4.82;;
30681;SDS011;17439;48.092;11.842;2023-06-19T00:17:45;7.22;;;5.40;;
30681;SDS011;17439;48.092;11.842;2023-06-19T00:20:11;6.10;;;4.05;;
30681;SDS011;17439;48.092;11.842;2023-06-19T00:22:38;7.57;;;5.10;;
30681;SDS011;17439;48.092;11.842;2023-06-19T00:25:05;14.75;;;5.07;;
30681;SDS011;17439;48.092;11.842;2023-06-19T00:27:32;7.57;;;4.88;;
30681;SDS011;17439;48.092;11.842;2023-06-19T00:29:59;8.30;;;5.30;;
30681;SDS011;17439;48.092;11.842;2023-06-19T00:32:27;8.13;;;4.65;;
30681;SDS011;17439;48.092;11.842;2023-06-19T00:34:55;8.15;;;5.72;;
30681;SDS011;17439;48.092;11.842;2023-06-19T00:37:24;7.95;;;5.32;;
30681;SDS011;17439;48.092;11.842;2023-06-19T00:39:52;5.80;;;4.28;;
30681;SDS011;17439;48.092;11.842;2023-06-19T00:42:19;8.32;;;4.20;;
30681;SDS011;17439;48.092;11.842;2023-06-19T00:44:46;6.57;;;4.70;;
30681;SDS011;17439;48.092;11.842;2023-06-19T00:47:12;7.65;;;4.82;;
30681;SDS011;17439;48.092;11.842;2023-06-19T00:49:39;6.78;;;4.63;;
30681;SDS011;17439;48.092;11.842;2023-06-19T00:52:06;6.97;;;5.03;;
30681;SDS011;17439;48.092;11.842;2023-06-19T00:54:34;6.88;;;4.38;;
30681;SDS011;17439;48.092;11.842;2023-06-19T00:57:01;7.00;;;4.57;;
30681;SDS011;17439;48.092;11.842;2023-06-19T00:59:28;6.53;;;4.90;;
30681;SDS011;17439;48.092;11.842;2023-06-19T01:01:55;7.10;;;4.63;;
30681;SDS011;17439;48.092;11.842;2023-06-19T01:04:22;7.13;;;4.53;;
30681;SDS011;17439;48.092;11.842;2023-06-19T01:06:53;6.47;;;4.70;;
30681;SDS011;17439;48.092;11.842;2023-06-19T01:09:22;6.28;;;4.68;;
30681;SDS011;17439;48.092;11.842;2023-06-19T01:11:50;7.00;;;4.28;;
30681;SDS011;17439;48.092;11.842;2023-06-19T01:14:28;7.43;;;4.75;;
30681;SDS011;17439;48.092;11.842;2023-06-19T01:17:02;6.88;;;4.57;;
30681;SDS011;17439;48.092;11.842;2023-06-19T01:19:29;7.83;;;4.27;;
30681;SDS011;17439;48.092;11.842;2023-06-19T01:21:56;5.78;;;4.32;;
30681;SDS011;17439;48.092;11.842;2023-06-19T01:24:23;7.97;;;4.82;;
30681;SDS011;17439;48.092;11.842;2023-06-19T01:26:50;6.00;;;4.53;;
30681;SDS011;17439;48.092;11.842;2023-06-19T01:29:16;6.38;;;4.72;;
30681;SDS011;17439;48.092;11.842;2023-06-19T01:32:01;6.67;;;4.57;;
30681;SDS011;17439;48.092;11.842;2023-06-19T01:34:36;7.57;;;4.70;;
30681;SDS011;17439;48.092;11.842;2023-06-19T01:37:06;6.30;;;4.07;;
30681;SDS011;17439;48.092;11.842;2023-06-19T01:39:36;9.15;;;5.07;;
30681;SDS011;17439;48.092;11.842;2023-06-19T01:42:04;5.53;;;4.82;;
30681;SDS011;17439;48.092;11.842;2023-06-19T01:44:31;6.90;;;4.43;;
30681;SDS011;17439;48.092;11.842;2023-06-19T01:46:59;6.25;;;4.68;;
30681;SDS011;17439;48.092;11.842;2023-06-19T01:49:26;5.40;;;4.15;;
30681;SDS011;17439;48.092;11.842;2023-06-19T01:51:52;8.02;;;4.45;;
30681;SDS011;17439;48.092;11.842;2023-06-19T01:54:19;10.10;;;5.47;;
30681;SDS011;17439;48.092;11.842;2023-06-19T01:56:47;10.43;;;4.95;;
30681;SDS011;17439;48.092;11.842;2023-06-19T01:59:13;6.75;;;4.35;;
30681;SDS011;17439;48.092;11.842;2023-06-19T02:01:40;8.55;;;5.55;;
30681;SDS011;17439;48.092;11.842;2023-06-19T02:04:07;7.65;;;4.60;;
30681;SDS011;17439;48.092;11.842;2023-06-19T02:06:36;6.78;;;5.00;;
30681;SDS011;17439;48.092;11.842;2023-06-19T02:09:03;9.07;;;4.60;;
30681;SDS011;17439;48.092;11.842;2023-06-19T02:11:30;8.68;;;4.70;;
30681;SDS011;17439;48.092;11.842;2023-06-19T02:13:56;6.63;;;4.75;;
30681;SDS011;17439;48.092;11.842;2023-06-19T02:16:23;7.30;;;4.85;;
30681;SDS011;17439;48.092;11.842;2023-06-19T02:18:50;6.72;;;4.75;;
30681;SDS011;17439;48.092;11.842;2023-06-19T02:21:17;5.55;;;3.75;;
30681;SDS011;17439;48.092;11.842;2023-06-19T02:23:43;5.82;;;3.92;;
30681;SDS011;17439;48.092;11.842;2023-06-19T02:26:10;6.82;;;4.60;;
30681;SDS011;17439;48.092;11.842;2023-06-19T02:28:37;6.40;;;4.55;;
30681;SDS011;17439;48.092;11.842;2023-06-19T02:31:04;6.18;;;4.35;;
30681;SDS011;17439;48.092;11.842;2023-06-19T02:33:31;9.45;;;4.78;;
30681;SDS011;17439;48.092;11.842;2023-06-19T02:35:58;8.32;;;5.20;;
30681;SDS011;17439;48.092;11.842;2023-06-19T02:38:25;7.57;;;4.82;;
30681;SDS011;17439;48.092;11.842;2023-06-19T02:40:53;8.40;;;4.80;;
30681;SDS011;17439;48.092;11.842;2023-06-19T02:43:20;7.65;;;4.80;;
30681;SDS011;17439;48.092;11.842;2023-06-19T02:45:46;8.07;;;5.38;;
30681;SDS011;17439;48.092;11.842;2023-06-19T02:48:13;5.57;;;4.43;;
30681;SDS011;17439;48.092;11.842;2023-06-19T02:50:40;6.00;;;4.80;;
30681;SDS011;17439;48.092;11.842;2023-06-19T02:53:07;7.20;;;4.75;;
30681;SDS011;17439;48.092;11.842;2023-06-19T02:55:33;6.78;;;4.80;;
30681;SDS011;17439;48.092;11.842;2023-06-19T02:58:02;7.75;;;5.63;;
30681;SDS011;17439;48.092;11.842;2023-06-19T03:00:29;6.32;;;4.93;;
30681;SDS011;17439;48.092;11.842;2023-06-19T03:02:56;9.65;;;5.00;;
30681;SDS011;17439;48.092;11.842;2023-06-19T03:05:24;7.47;;;5.35;;
30681;SDS011;17439;48.092;11.842;2023-06-19T03:07:51;6.07;;;4.95;;
30681;SDS011;17439;48.092;11.842;2023-06-19T03:10:17;8.07;;;4.80;;
30681;SDS011;17439;48.092;11.842;2023-06-19T03:12:44;6.75;;;4.65;;
30681;SDS011;17439;48.092;11.842;2023-06-19T03:15:11;7.72;;;5.25;;
30681;SDS011;17439;48.092;11.842;2023-06-19T03:17:41;8.52;;;4.80;;
30681;SDS011;17439;48.092;11.842;2023-06-19T03:20:11;6.53;;;4.00;;
30681;SDS011;17439;48.092;11.842;2023-06-19T03:22:41;9.00;;;5.20;;
30681;SDS011;17439;48.092;11.842;2023-06-19T03:25:11;7.90;;;5.00;;
30681;SDS011;17439;48.092;11.842;2023-06-19T03:27:39;7.85;;;5.05;;
30681;SDS011;17439;48.092;11.842;2023-06-19T03:30:06;8.73;;;4.72;;
30681;SDS011;17439;48.092;11.842;2023-06-19T03:32:38;7.70;;;5.10;;
30681;SDS011;17439;48.092;11.842;2023-06-19T03:35:07;5.95;;;4.35;;
30681;SDS011;17439;48.092;11.842;2023-06-19T03:37:39;7.28;;;4.75;;
30681;SDS011;17439;48.092;11.842;2023-06-19T03:40:06;8.70;;;4.90;;
30681;SDS011;17439;48.092;11.842;2023-06-19T03:42:37;11.27;;;5.75;;
30681;SDS011;17439;48.092;11.842;2023-06-19T03:45:04;7.18;;;5.85;;
30681;SDS011;17439;48.092;11.842;2023-06-19T03:47:31;7.57;;;5.47;;
30681;SDS011;17439;48.092;11.842;2023-06-19T03:49:58;8.25;;;5.65;;
30681;SDS011;17439;48.092;11.842;2023-06-19T03:52:45;7.47;;;5.68;;
30681;SDS011;17439;48.092;11.842;2023-06-19T03:55:11;8.82;;;5.65;;
30681;SDS011;17439;48.092;11.842;2023-06-19T03:57:38;7.78;;;5.50;;
30681;SDS011;17439;48.092;11.842;2023-06-19T04:00:05;8.43;;;5.85;;
30681;SDS011;17439;48.092;11.842;2023-06-19T04:02:37;9.18;;;6.00;;
30681;SDS011;17439;48.092;11.842;2023-06-19T04:05:05;10.13;;;6.05;;
30681;SDS011;17439;48.092;11.842;2023-06-19T04:07:32;7.47;;;5.10;;
30681;SDS011;17439;48.092;11.842;2023-06-19T04:09:59;6.38;;;4.80;;
30681;SDS011;17439;48.092;11.842;2023-06-19T04:12:25;8.18;;;4.90;;
30681;SDS011;17439;48.092;11.842;2023-06-19T04:14:52;8.07;;;6.05;;
30681;SDS011;17439;48.092;11.842;2023-06-19T04:17:19;7.43;;;5.30;;
30681;SDS011;17439;48.092;11.842;2023-06-19T04:19:47;6.65;;;5.05;;
30681;SDS011;17439;48.092;11.842;2023-06-19T04:22:14;7.30;;;5.38;;
30681;SDS011;17439;48.092;11.842;2023-06-19T04:24:41;9.35;;;5.90;;
30681;SDS011;17439;48.092;11.842;2023-06-19T04:27:08;7.43;;;5.25;;
30681;SDS011;17439;48.092;11.842;2023-06-19T04:29:34;11.60;;;5.70;;
30681;SDS011;17439;48.092;11.842;2023-06-19T04:32:01;8.23;;;5.28;;
30681;SDS011;17439;48.092;11.842;2023-06-19T04:34:28;17.85;;;6.20;;
30681;SDS011;17439;48.092;11.842;2023-06-19T04:36:55;9.00;;;5.90;;
30681;SDS011;17439;48.092;11.842;2023-06-19T04:39:22;8.82;;;5.63;;
30681;SDS011;17439;48.092;11.842;2023-06-19T04:41:48;9.98;;;5.40;;
30681;SDS011;17439;48.092;11.842;2023-06-19T04:44:15;7.55;;;5.47;;
30681;SDS011;17439;48.092;11.842;2023-06-19T04:46:42;8.10;;;5.03;;
30681;SDS011;17439;48.092;11.842;2023-06-19T04:49:09;7.83;;;5.53;;
30681;SDS011;17439;48.092;11.842;2023-06-19T04:51:36;7.80;;;4.38;;
30681;SDS011;17439;48.092;11.842;2023-06-19T04:54:03;8.15;;;5.03;;
30681;SDS011;17439;48.092;11.842;2023-06-19T04:56:30;10.02;;;5.40;;
30681;SDS011;17439;48.092;11.842;2023-06-19T04:58:56;7.20;;;5.28;;
30681;SDS011;17439;48.092;11.842;2023-06-19T05:01:23;9.07;;;5.82;;
30681;SDS011;17439;48.092;11.842;2023-06-19T05:03:50;11.38;;;5.60;;
30681;SDS011;17439;48.092;11.842;2023-06-19T05:06:17;9.40;;;5.90;;
30681;SDS011;17439;48.092;11.842;2023-06-19T05:08:44;7.90;;;4.95;;
30681;SDS011;17439;48.092;11.842;2023-06-19T05:11:10;6.90;;;5.28;;
30681;SDS011;17439;48.092;11.842;2023-06-19T05:13:37;9.43;;;5.20;;
30681;SDS011;17439;48.092;11.842;2023-06-19T05:16:04;8.02;;;5.57;;
30681;SDS011;17439;48.092;11.842;2023-06-19T05:18:31;9.77;;;5.28;;
30681;SDS011;17439;48.092;11.842;2023-06-19T05:20:57;9.00;;;6.07;;
30681;SDS011;17439;48.092;11.842;2023-06-19T05:23:24;12.75;;;5.60;;
30681;SDS011;17439;48.092;11.842;2023-06-19T05:25:51;9.15;;;5.90;;
30681;SDS011;17439;48.092;11.842;2023-06-19T05:28:18;6.97;;;5.00;;
30681;SDS011;17439;48.092;11.842;2023-06-19T05:30:45;8.93;;;5.47;;
30681;SDS011;17439;48.092;11.842;2023-06-19T05:33:11;10.48;;;5.53;;
30681;SDS011;17439;48.092;11.842;2023-06-19T05:35:38;8.02;;;5.07;;
30681;SDS011;17439;48.092;11.842;2023-06-19T05:38:05;5.90;;;4.78;;
30681;SDS011;17439;48.092;11.842;2023-06-19T05:40:31;8.18;;;5.35;;
30681;SDS011;17439;48.092;11.842;2023-06-19T05:42:58;10.35;;;5.90;;
30681;SDS011;17439;48.092;11.842;2023-06-19T05:45:25;6.90;;;5.53;;
30681;SDS011;17439;48.092;11.842;2023-06-19T05:47:53;7.43;;;5.65;;
30681;SDS011;17439;48.092;11.842;2023-06-19T05:50:20;11.52;;;6.53;;
30681;SDS011;17439;48.092;11.842;2023-06-19T05:52:47;10.25;;;5.35;;
30681;SDS011;17439;48.092;11.842;2023-06-19T05:55:13;8.07;;;5.65;;
30681;SDS011;17439;48.092;11.842;2023-06-19T05:57:40;6.88;;;5.40;;
30681;SDS011;17439;48.092;11.842;2023-06-19T06:00:07;8.50;;;5.88;;
30681;SDS011;17439;48.092;11.842;2023-06-19T06:02:38;9.20;;;5.82;;
30681;SDS011;17439;48.092;11.842;2023-06-19T06:05:04;8.90;;;5.85;;
30681;SDS011;17439;48.092;11.842;2023-06-19T06:07:32;7.63;;;5.45;;
30681;SDS011;17439;48.092;11.842;2023-06-19T06:10:01;7.85;;;5.57;;
30681;SDS011;17439;48.092;11.842;2023-06-19T06:12:28;8.18;;;5.80;;
30681;SDS011;17439;48.092;11.842;2023-06-19T06:14:55;9.32;;;5.50;;
30681;SDS011;17439;48.092;11.842;2023-06-19T06:17:21;10.13;;;6.63;;
30681;SDS011;17439;48.092;11.842;2023-06-19T06:19:48;9.43;;;5.78;;
30681;SDS011;17439;48.092;11.842;2023-06-19T06:22:15;10.38;;;6.40;;
30681;SDS011;17439;48.092;11.842;2023-06-19T06:24:41;8.18;;;5.53;;
30681;SDS011;17439;48.092;11.842;2023-06-19T06:27:08;7.78;;;4.88;;
30681;SDS011;17439;48.092;11.842;2023-06-19T06:29:35;11.63;;;5.28;;
30681;SDS011;17439;48.092;11.842;2023-06-19T06:32:05;7.68;;;5.43;;
30681;SDS011;17439;48.092;11.842;2023-06-19T06:34:33;10.38;;;5.68;;
30681;SDS011;17439;48.092;11.842;2023-06-19T06:37:00;7.80;;;5.13;;
30681;SDS011;17439;48.092;11.842;2023-06-19T06:39:32;8.40;;;5.82;;
30681;SDS011;17439;48.092;11.842;2023-06-19T06:41:59;7.68;;;5.50;;
30681;SDS011;17439;48.092;11.842;2023-06-19T06:44:26;8.73;;;6.03;;
30681;SDS011;17439;48.092;11.842;2023-06-19T06:46:53;10.40;;;6.35;;
30681;SDS011;17439;48.092;11.842;2023-06-19T06:49:19;7.53;;;5.63;;
30681;SDS011;17439;48.092;11.842;2023-06-19T06:51:46;12.88;;;5.47;;
30681;SDS011;17439;48.092;11.842;2023-06-19T06:54:13;9.40;;;5.97;;
30681;SDS011;17439;48.092;11.842;2023-06-19T06:56:40;8.65;;;5.32;;
30681;SDS011;17439;48.092;11.842;2023-06-19T06:59:06;7.90;;;5.22;;
30681;SDS011;17439;48.092;11.842;2023-06-19T07:01:33;8.10;;;5.68;;
30681;SDS011;17439;48.092;11.842;2023-06-19T07:04:00;9.43;;;6.28;;
30681;SDS011;17439;48.092;11.842;2023-06-19T07:06:26;8.75;;;6.05;;
30681;SDS011;17439;48.092;11.842;2023-06-19T07:08:53;10.85;;;5.63;;
30681;SDS011;17439;48.092;11.842;2023-06-19T07:11:20;7.90;;;6.05;;
30681;SDS011;17439;48.092;11.842;2023-06-19T07:13:47;10.65;;;6.50;;
30681;SDS011;17439;48.092;11.842;2023-06-19T07:16:14;10.60;;;5.53;;
30681;SDS011;17439;48.092;11.842;2023-06-19T07:18:40;9.60;;;5.47;;
30681;SDS011;17439;48.092;11.842;2023-06-19T07:21:10;9.20;;;5.60;;
30681;SDS011;17439;48.092;11.842;2023-06-19T07:23:39;7.90;;;5.28;;
30681;SDS011;17439;48.092;11.842;2023-06-19T07:26:06;7.53;;;5.15;;
30681;SDS011;17439;48.092;11.842;2023-06-19T07:28:33;7.43;;;5.32;;
30681;SDS011;17439;48.092;11.842;2023-06-19T07:31:00;8.38;;;5.03;;
30681;SDS011;17439;48.092;11.842;2023-06-19T07:33:26;7.95;;;5.20;;
30681;SDS011;17439;48.092;11.842;2023-06-19T07:35:54;9.43;;;5.00;;
30681;SDS011;17439;48.092;11.842;2023-06-19T07:38:20;7.13;;;4.78;;
30681;SDS011;17439;48.092;11.842;2023-06-19T07:40:47;5.45;;;4.57;;
30681;SDS011;17439;48.092;11.842;2023-06-19T07:43:14;7.15;;;5.43;;
30681;SDS011;17439;48.092;11.842;2023-06-19T07:45:41;7.47;;;5.05;;
30681;SDS011;17439;48.092;11.842;2023-06-19T07:48:07;8.13;;;4.50;;
30681;SDS011;17439;48.092;11.842;2023-06-19T07:50:34;8.18;;;5.30;;
30681;SDS011;17439;48.092;11.842;2023-06-19T07:53:01;6.13;;;4.25;;
30681;SDS011;17439;48.092;11.842;2023-06-19T07:55:28;5.82;;;4.75;;
30681;SDS011;17439;48.092;11.842;2023-06-19T07:57:54;10.15;;;5.00;;
30681;SDS011;17439;48.092;11.842;2023-06-19T08:00:21;7.68;;;4.68;;
30681;SDS011;17439;48.092;11.842;2023-06-19T08:02:48;7.90;;;5.40;;
30681;SDS011;17439;48.092;11.842;2023-06-19T08:05:15;7.95;;;5.20;;
30681;SDS011;17439;48.092;11.842;2023-06-19T08:07:42;12.23;;;5.43;;
30681;SDS011;17439;48.092;11.842;2023-06-19T08:10:09;6.85;;;5.20;;
30681;SDS011;17439;48.092;11.842;2023-06-19T08:12:41;7.00;;;4.63;;
30681;SDS011;17439;48.092;11.842;2023-06-19T08:15:09;8.00;;;4.55;;
30681;SDS011;17439;48.092;11.842;2023-06-19T08:17:36;10.00;;;5.18;;
30681;SDS011;17439;48.092;11.842;2023-06-19T08:20:03;5.55;;;4.75;;
30681;SDS011;17439;48.092;11.842;2023-06-19T08:22:30;5.83;;;4.53;;
30681;SDS011;17439;48.092;11.842;2023-06-19T08:24:57;7.50;;;4.65;;
30681;SDS011;17439;48.092;11.842;2023-06-19T08:27:24;5.97;;;4.68;;
30681;SDS011;17439;48.092;11.842;2023-06-19T08:29:51;7.23;;;4.57;;
30681;SDS011;17439;48.092;11.842;2023-06-19T08:32:18;5.55;;;4.15;;
30681;SDS011;17439;48.092;11.842;2023-06-19T08:34:48;5.30;;;3.67;;
30681;SDS011;17439;48.092;11.842;2023-06-19T08:37:15;6.45;;;3.67;;
30681;SDS011;17439;48.092;11.842;2023-06-19T08:39:41;5.22;;;3.78;;
30681;SDS011;17439;48.092;11.842;2023-06-19T08:42:08;8.07;;;3.53;;
30681;SDS011;17439;48.092;11.842;2023-06-19T08:44:37;6.55;;;3.38;;
30681;SDS011;17439;48.092;11.842;2023-06-19T08:49:35;6.85;;;3.50;;
30681;SDS011;17439;48.092;11.842;2023-06-19T08:52:02;6.88;;;3.90;;
30681;SDS011;17439;48.092;11.842;2023-06-19T08:54:30;7.45;;;4.30;;
30681;SDS011;17439;48.092;11.842;2023-06-19T08:57:03;6.55;;;4.07;;
30681;SDS011;17439;48.092;11.842;2023-06-19T08:59:30;4.88;;;3.55;;
30681;SDS011;17439;48.092;11.842;2023-06-19T09:01:57;5.57;;;4.10;;
30681;SDS011;17439;48.092;11.842;2023-06-19T09:04:28;6.00;;;3.30;;
30681;SDS011;17439;48.092;11.842;2023-06-19T09:06:55;5.60;;;3.20;;
30681;SDS011;17439;48.092;11.842;2023-06-19T09:09:28;5.20;;;3.70;;
30681;SDS011;17439;48.092;11.842;2023-06-19T09:11:58;4.82;;;3.20;;
30681;SDS011;17439;48.092;11.842;2023-06-19T09:17:04;4.07;;;3.40;;
30681;SDS011;17439;48.092;11.842;2023-06-19T09:19:33;3.85;;;2.95;;
30681;SDS011;17439;48.092;11.842;2023-06-19T09:22:01;4.10;;;3.22;;
30681;SDS011;17439;48.092;11.842;2023-06-19T09:24:33;6.43;;;4.20;;
30681;SDS011;17439;48.092;11.842;2023-06-19T09:27:14;7.18;;;4.43;;
30681;SDS011;17439;48.092;11.842;2023-06-19T09:29:42;5.05;;;3.88;;
30681;SDS011;17439;48.092;11.842;2023-06-19T09:34:48;4.82;;;3.65;;
30681;SDS011;17439;48.092;11.842;2023-06-19T09:37:16;5.22;;;4.22;;
30681;SDS011;17439;48.092;11.842;2023-06-19T09:39:48;7.55;;;3.33;;
30681;SDS011;17439;48.092;11.842;2023-06-19T09:42:23;8.98;;;4.30;;
30681;SDS011;17439;48.092;11.842;2023-06-19T09:45:02;3.35;;;2.97;;
30681;SDS011;17439;48.092;11.842;2023-06-19T09:47:37;5.32;;;3.28;;
30681;SDS011;17439;48.092;11.842;2023-06-19T09:50:06;4.20;;;3.75;;
30681;SDS011;17439;48.092;11.842;2023-06-19T09:52:33;4.23;;;3.53;;
30681;SDS011;17439;48.092;11.842;2023-06-19T09:55:03;5.72;;;3.90;;
30681;SDS011;17439;48.092;11.842;2023-06-19T09:57:31;5.88;;;3.63;;
30681;SDS011;17439;48.092;11.842;2023-06-19T09:59:59;4.78;;;3.75;;
30681;SDS011;17439;48.092;11.842;2023-06-19T10:02:37;4.00;;;3.33;;
30681;SDS011;17439;48.092;11.842;2023-06-19T10:05:06;4.45;;;3.45;;
30681;SDS011;17439;48.092;11.842;2023-06-19T10:07:34;5.65;;;3.97;;
30681;SDS011;17439;48.092;11.842;2023-06-19T10:10:03;5.68;;;3.10;;
30681;SDS011;17439;48.092;11.842;2023-06-19T10:12:34;4.40;;;3.20;;
30681;SDS011;17439;48.092;11.842;2023-06-19T10:15:21;4.75;;;2.70;;
30681;SDS011;17439;48.092;11.842;2023-06-19T10:17:50;4.32;;;3.03;;
30681;SDS011;17439;48.092;11.842;2023-06-19T10:20:22;4.40;;;3.22;;
30681;SDS011;17439;48.092;11.842;2023-06-19T10:22:56;4.30;;;2.90;;
30681;SDS011;17439;48.092;11.842;2023-06-19T10:25:26;6.57;;;3.17;;
30681;SDS011;17439;48.092;11.842;2023-06-19T10:27:55;3.50;;;2.60;;
30681;SDS011;17439;48.092;11.842;2023-06-19T10:30:23;5.28;;;3.03;;
30681;SDS011;17439;48.092;11.842;2023-06-19T10:32:50;4.63;;;2.50;;
30681;SDS011;17439;48.092;11.842;2023-06-19T10:35:17;3.63;;;2.80;;
30681;SDS011;17439;48.092;11.842;2023-06-19T10:37:44;6.07;;;2.77;;
30681;SDS011;17439;48.092;11.842;2023-06-19T10:40:11;3.05;;;2.38;;
30681;SDS011;17439;48.092;11.842;2023-06-19T10:42:38;3.58;;;2.70;;
30681;SDS011;17439;48.092;11.842;2023-06-19T10:45:07;5.32;;;2.50;;
30681;SDS011;17439;48.092;11.842;2023-06-19T10:47:37;4.30;;;2.72;;
30681;SDS011;17439;48.092;11.842;2023-06-19T10:50:09;3.10;;;2.65;;
30681;SDS011;17439;48.092;11.842;2023-06-19T10:52:42;3.35;;;2.63;;
30681;SDS011;17439;48.092;11.842;2023-06-19T10:55:10;5.22;;;2.42;;
30681;SDS011;17439;48.092;11.842;2023-06-19T10:57:39;3.08;;;2.20;;
30681;SDS011;17439;48.092;11.842;2023-06-19T11:00:07;3.00;;;2.65;;
30681;SDS011;17439;48.092;11.842;2023-06-19T11:02:34;4.30;;;2.60;;
30681;SDS011;17439;48.092;11.842;2023-06-19T11:05:02;3.47;;;2.63;;
30681;SDS011;17439;48.092;11.842;2023-06-19T11:07:29;6.07;;;2.47;;
30681;SDS011;17439;48.092;11.842;2023-06-19T11:09:58;5.15;;;2.28;;
30681;SDS011;17439;48.092;11.842;2023-06-19T11:12:24;2.60;;;1.98;;
30681;SDS011;17439;48.092;11.842;2023-06-19T11:14:51;3.25;;;2.38;;
30681;SDS011;17439;48.092;11.842;2023-06-19T11:17:18;3.00;;;2.33;;
30681;SDS011;17439;48.092;11.842;2023-06-19T11:19:45;3.03;;;2.13;;
30681;SDS011;17439;48.092;11.842;2023-06-19T11:22:11;3.63;;;2.75;;
30681;SDS011;17439;48.092;11.842;2023-06-19T11:24:47;3.80;;;2.20;;
30681;SDS011;17439;48.092;11.842;2023-06-19T11:27:22;3.38;;;2.63;;
30681;SDS011;17439;48.092;11.842;2023-06-19T11:29:54;2.65;;;2.22;;
30681;SDS011;17439;48.092;11.842;2023-06-19T11:32:21;4.53;;;2.53;;
30681;SDS011;17439;48.092;11.842;2023-06-19T11:34:48;3.22;;;2.72;;
30681;SDS011;17439;48.092;11.842;2023-06-19T11:37:15;3.15;;;2.85;;
30681;SDS011;17439;48.092;11.842;2023-06-19T11:39:43;3.08;;;2.60;;
30681;SDS011;17439;48.092;11.842;2023-06-19T11:42:11;2.92;;;2.38;;
30681;SDS011;17439;48.092;11.842;2023-06-19T11:44:54;5.93;;;2.55;;
30681;SDS011;17439;48.092;11.842;2023-06-19T11:47:21;2.42;;;2.20;;
30681;SDS011;17439;48.092;11.842;2023-06-19T11:52:16;4.97;;;2.97;;
30681;SDS011;17439;48.092;11.842;2023-06-19T11:54:43;2.55;;;2.20;;
30681;SDS011;17439;48.092;11.842;2023-06-19T11:57:10;3.97;;;3.20;;
30681;SDS011;17439;48.092;11.842;2023-06-19T11:59:40;6.18;;;3.00;;
30681;SDS011;17439;48.092;11.842;2023-06-19T12:02:08;3.55;;;2.67;;
30681;SDS011;17439;48.092;11.842;2023-06-19T12:04:35;3.97;;;3.33;;
30681;SDS011;17439;48.092;11.842;2023-06-19T12:07:02;5.37;;;3.10;;
30681;SDS011;17439;48.092;11.842;2023-06-19T12:09:29;4.22;;;2.65;;
30681;SDS011;17439;48.092;11.842;2023-06-19T12:11:56;4.68;;;2.85;;
30681;SDS011;17439;48.092;11.842;2023-06-19T12:14:23;4.53;;;2.65;;
30681;SDS011;17439;48.092;11.842;2023-06-19T12:16:50;4.20;;;3.22;;
30681;SDS011;17439;48.092;11.842;2023-06-19T12:19:17;5.47;;;3.30;;
30681;SDS011;17439;48.092;11.842;2023-06-19T12:21:46;4.90;;;3.35;;
30681;SDS011;17439;48.092;11.842;2023-06-19T12:24:13;4.03;;;2.90;;
30681;SDS011;17439;48.092;11.842;2023-06-19T12:26:40;4.75;;;3.47;;
30681;SDS011;17439;48.092;11.842;2023-06-19T12:29:07;6.50;;;3.08;;
30681;SDS011;17439;48.092;11.842;2023-06-19T12:31:34;4.10;;;3.50;;
30681;SDS011;17439;48.092;11.842;2023-06-19T12:34:01;5.93;;;3.40;;
30681;SDS011;17439;48.092;11.842;2023-06-19T12:36:39;4.75;;;2.92;;
30681;SDS011;17439;48.092;11.842;2023-06-19T12:39:06;6.50;;;3.47;;
30681;SDS011;17439;48.092;11.842;2023-06-19T12:41:32;6.72;;;3.38;;
30681;SDS011;17439;48.092;11.842;2023-06-19T12:43:59;5.93;;;3.88;;
30681;SDS011;17439;48.092;11.842;2023-06-19T12:46:26;5.40;;;3.35;;
30681;SDS011;17439;48.092;11.842;2023-06-19T12:48:52;3.50;;;2.90;;
30681;SDS011;17439;48.092;11.842;2023-06-19T12:51:19;6.78;;;3.88;;
30681;SDS011;17439;48.092;11.842;2023-06-19T12:53:46;3.30;;;3.00;;
30681;SDS011;17439;48.092;11.842;2023-06-19T12:56:13;4.35;;;3.67;;
30681;SDS011;17439;48.092;11.842;2023-06-19T12:58:39;5.00;;;3.50;;
30681;SDS011;17439;48.092;11.842;2023-06-19T13:01:06;3.80;;;3.50;;
30681;SDS011;17439;48.092;11.842;2023-06-19T13:03:33;3.80;;;3.30;;
30681;SDS011;17439;48.092;11.842;2023-06-19T13:06:00;4.23;;;3.57;;
30681;SDS011;17439;48.092;11.842;2023-06-19T13:08:26;5.10;;;3.90;;
30681;SDS011;17439;48.092;11.842;2023-06-19T13:10:53;4.18;;;3.42;;
30681;SDS011;17439;48.092;11.842;2023-06-19T13:13:20;5.40;;;3.53;;
30681;SDS011;17439;48.092;11.842;2023-06-19T13:15:47;4.68;;;3.50;;
30681;SDS011;17439;48.092;11.842;2023-06-19T13:18:13;7.50;;;4.00;;
30681;SDS011;17439;48.092;11.842;2023-06-19T13:20:40;4.60;;;3.50;;
30681;SDS011;17439;48.092;11.842;2023-06-19T13:23:07;5.33;;;4.07;;
30681;SDS011;17439;48.092;11.842;2023-06-19T13:25:34;5.75;;;3.88;;
30681;SDS011;17439;48.092;11.842;2023-06-19T13:28:01;11.15;;;4.22;;
30681;SDS011;17439;48.092;11.842;2023-06-19T13:30:28;5.07;;;3.95;;
30681;SDS011;17439;48.092;11.842;2023-06-19T13:32:54;3.60;;;3.20;;
30681;SDS011;17439;48.092;11.842;2023-06-19T13:35:21;4.07;;;3.67;;
30681;SDS011;17439;48.092;11.842;2023-06-19T13:37:48;6.30;;;4.25;;
30681;SDS011;17439;48.092;11.842;2023-06-19T13:40:15;5.03;;;4.10;;
30681;SDS011;17439;48.092;11.842;2023-06-19T13:42:41;5.47;;;4.20;;
30681;SDS011;17439;48.092;11.842;2023-06-19T13:45:08;3.73;;;3.13;;
30681;SDS011;17439;48.092;11.842;2023-06-19T13:47:35;5.15;;;4.20;;
30681;SDS011;17439;48.092;11.842;2023-06-19T13:50:02;7.80;;;3.80;;
30681;SDS011;17439;48.092;11.842;2023-06-19T13:52:29;4.55;;;3.45;;
30681;SDS011;17439;48.092;11.842;2023-06-19T13:54:56;6.32;;;3.90;;
30681;SDS011;17439;48.092;11.842;2023-06-19T13:57:22;5.18;;;3.95;;
30681;SDS011;17439;48.092;11.842;2023-06-19T13:59:49;4.47;;;3.78;;
30681;SDS011;17439;48.092;11.842;2023-06-19T14:02:16;5.10;;;3.38;;
30681;SDS011;17439;48.092;11.842;2023-06-19T14:04:43;4.77;;;3.40;;
30681;SDS011;17439;48.092;11.842;2023-06-19T14:07:09;6.07;;;3.38;;
30681;SDS011;17439;48.092;11.842;2023-06-19T14:09:36;6.05;;;4.00;;
30681;SDS011;17439;48.092;11.842;2023-06-19T14:12:03;5.45;;;4.05;;
30681;SDS011;17439;48.092;11.842;2023-06-19T14:14:30;6.13;;;4.05;;
30681;SDS011;17439;48.092;11.842;2023-06-19T14:16:57;4.67;;;3.67;;
30681;SDS011;17439;48.092;11.842;2023-06-19T14:19:24;3.78;;;3.17;;
30681;SDS011;17439;48.092;11.842;2023-06-19T14:21:50;3.38;;;2.97;;
30681;SDS011;17439;48.092;11.842;2023-06-19T14:24:17;4.15;;;3.30;;
30681;SDS011;17439;48.092;11.842;2023-06-19T14:26:44;5.13;;;4.07;;
30681;SDS011;17439;48.092;11.842;2023-06-19T14:29:11;7.07;;;3.83;;
30681;SDS011;17439;48.092;11.842;2023-06-19T14:31:38;5.47;;;3.27;;
30681;SDS011;17439;48.092;11.842;2023-06-19T14:34:04;5.47;;;4.40;;
30681;SDS011;17439;48.092;11.842;2023-06-19T14:36:31;5.60;;;4.43;;
30681;SDS011;17439;48.092;11.842;2023-06-19T14:38:58;3.77;;;3.30;;
30681;SDS011;17439;48.092;11.842;2023-06-19T14:41:25;4.70;;;4.03;;
30681;SDS011;17439;48.092;11.842;2023-06-19T14:43:51;5.93;;;4.07;;
30681;SDS011;17439;48.092;11.842;2023-06-19T14:46:18;8.03;;;4.07;;